Jonathan C Moran — WDI5374 — position and weather

sailwx.info

Track history (hours):
 
Tides and Currents Weather Stations Pressure Air Temp Water Temp Dewpoint Dewpoint Depression Visibility Wind Speed Wind Dir Waves Ship Positions

Jonathan C Moran

Owner: Moran Towing Corporation, New Canaan, CT. More information available from US FCC via Universal Licensing System and Coast Guard Vessel Documentation Center.

Last reported at 2018-Jun-19 08:00 UTC. Time now 2018-Jun-19 08:01 UTC.
Position N 40°41' W 074°08'.

Length 28 m; draft 5.5 m.

Type: Tug. MMSI: 367707930.

Date/timePositionNaut miles runAvg speedWind from/ knotsBaromVisibWave heightAir tempDewpointWater temp
2018-Jun-19 08:00N 40°41' W 074°08'0 0.4
2018-Jun-19 07:20N 40°41' W 074°08'0 0.0
2018-Jun-19 06:59N 40°41' W 074°08'0 0.5
2018-Jun-19 06:30N 40°41' W 074°08'1 2.5
2018-Jun-19 06:00N 40°40' W 074°08'2 3.3
2018-Jun-19 05:30N 40°39' W 074°07'3 5.2
2018-Jun-19 05:00N 40°38' W 074°03'3 5.7
2018-Jun-19 04:30N 40°39' W 074°07'1 1.2
2018-Jun-19 04:00N 40°38' W 074°08'0 0.0
2018-Jun-19 03:30N 40°38' W 074°08'0 0.0
2018-Jun-19 03:00N 40°38' W 074°08'0 0.0
2018-Jun-19 02:30N 40°38' W 074°08'0 0.0
2018-Jun-19 01:59N 40°38' W 074°08'0 0.0
2018-Jun-19 01:30N 40°38' W 074°08'0 0.0
2018-Jun-19 01:00N 40°38' W 074°08'0 0.0
2018-Jun-19 00:30N 40°38' W 074°08'0 0.0
2018-Jun-19 00:00N 40°38' W 074°08'0 0.0
2018-Jun-18 23:30N 40°38' W 074°08'0 0.0
2018-Jun-18 23:00N 40°38' W 074°08'0 0.0
2018-Jun-18 22:30N 40°38' W 074°08'1 2.7
2018-Jun-18 22:00N 40°40' W 074°09'1 2.5
2018-Jun-18 21:30N 40°41' W 074°09'1 1.0
2018-Jun-18 20:58N 40°41' W 074°08'2 3.7
2018-Jun-18 20:24N 40°38' W 074°09'2 5.0
2018-Jun-18 19:55N 40°39' W 074°05'3 5.4
2018-Jun-18 19:24N 40°37' W 074°03'3 8.2
2018-Jun-18 19:00N 40°39' W 074°06'1 2.5
2018-Jun-18 18:30N 40°38' W 074°08'0 0.0
2018-Jun-18 18:00N 40°38' W 074°08'0 0.0
2018-Jun-18 17:30N 40°38' W 074°08'0 0.0
2018-Jun-18 17:00N 40°38' W 074°08'0 0.0
2018-Jun-18 16:30N 40°38' W 074°08'0 0.0
2018-Jun-18 16:00N 40°38' W 074°08'0 0.0
2018-Jun-18 15:30N 40°38' W 074°08'2 2.2
2018-Jun-18 14:48N 40°40' W 074°09'0 1.1
2018-Jun-18 14:30N 40°40' W 074°09'1 2.9
2018-Jun-18 14:00N 40°39' W 074°07'3 6.2
2018-Jun-18 13:30N 40°38' W 074°03'3 5.6
2018-Jun-18 13:00N 40°39' W 074°07'1 1.2
2018-Jun-18 12:19N 40°38' W 074°08'0 0.0
2018-Jun-18 11:58N 40°38' W 074°08'0 0.0
2018-Jun-18 08:32N 40°38' W 074°08'0 0.2
2018-Jun-18 08:30N 40°38' W 074°08'1 3.0
2018-Jun-18 08:00N 40°40' W 074°09'0 0.1
2018-Jun-18 07:30N 40°40' W 074°09'1 2.6
2018-Jun-18 07:00N 40°39' W 074°08'0 0.3
2018-Jun-18 06:27N 40°38' W 074°08'2 4.7
2018-Jun-18 05:59N 40°41' W 074°09'0 0.1
2018-Jun-18 05:30N 40°41' W 074°09'1 1.5
2018-Jun-18 04:59N 40°40' W 074°08'1 2.5
2018-Jun-18 04:29N 40°39' W 074°08'2 4.8
2018-Jun-18 04:00N 40°39' W 074°05'3 5.6
2018-Jun-18 03:30N 40°37' W 074°03'3 6.0
2018-Jun-18 03:00N 40°39' W 074°06'2 3.3
2018-Jun-18 02:30N 40°38' W 074°08'0 0.0
2018-Jun-18 02:00N 40°38' W 074°08'0 0.0
2018-Jun-18 01:30N 40°38' W 074°08'0 0.0
2018-Jun-18 01:00N 40°38' W 074°08'0 0.3
2018-Jun-18 00:30N 40°39' W 074°08'1 1.7
2018-Jun-17 23:45N 40°40' W 074°09'1 3.5
2018-Jun-17 23:30N 40°40' W 074°08'0 0.2
2018-Jun-17 22:32N 40°40' W 074°08'0 4.6
2018-Jun-17 22:29N 40°40' W 074°08'2 3.4
2018-Jun-17 22:00N 40°39' W 074°08'4 7.2
2018-Jun-17 21:30N 40°39' W 074°03'2 3.6
2018-Jun-17 21:00N 40°39' W 074°06'2 0.3
2018-Jun-17 16:16N 40°39' W 074°08'1 1.6
2018-Jun-17 15:25N 40°40' W 074°09'3 4.6
2018-Jun-17 14:43N 40°39' W 074°05'2 7.1
2018-Jun-17 14:30N 40°38' W 074°03'3 1.1
2018-Jun-17 11:18N 40°38' W 074°08'0 0.0
2018-Jun-17 11:00N 40°38' W 074°08'0 0.1
2018-Jun-17 10:27N 40°38' W 074°08'1 3.4
2018-Jun-17 10:00N 40°40' W 074°09'1 2.3
2018-Jun-17 09:29N 40°39' W 074°09'3 5.9
2018-Jun-17 09:00N 40°39' W 074°05'2 4.0
2018-Jun-17 08:31N 40°38' W 074°03'3 6.1
2018-Jun-17 08:00N 40°39' W 074°07'1 1.0
2018-Jun-17 07:19N 40°38' W 074°08'0 0.0
2018-Jun-17 06:42N 40°38' W 074°08'0 0.0
2018-Jun-17 06:27N 40°38' W 074°08'0 0.0
2018-Jun-17 06:00N 40°38' W 074°08'0 0.0
2018-Jun-17 05:30N 40°38' W 074°08'0 0.0
2018-Jun-16 16:42N 40°38' W 074°08'0 0.1
2018-Jun-16 16:30N 40°38' W 074°08'2 3.4
2018-Jun-16 15:59N 40°40' W 074°08'1 1.6
2018-Jun-16 15:30N 40°41' W 074°09'1 1.5
2018-Jun-16 15:00N 40°40' W 074°08'2 3.9
2018-Jun-16 14:30N 40°39' W 074°09'3 6.3
2018-Jun-16 14:00N 40°39' W 074°04'3 5.4
2018-Jun-16 13:30N 40°37' W 074°03'3 6.8
2018-Jun-16 13:00N 40°40' W 074°04'0 0.0
2018-Jun-16 12:30N 40°40' W 074°04'0 0.0
2018-Jun-16 12:00N 40°40' W 074°04'0 0.0
2018-Jun-16 11:30N 40°40' W 074°04'0 0.0
2018-Jun-16 11:00N 40°40' W 074°04'1 1.2
2018-Jun-16 10:30N 40°40' W 074°05'0 0.3
2018-Jun-16 10:00N 40°40' W 074°05'0 0.3
2018-Jun-16 09:30N 40°40' W 074°05'0 0.0
2018-Jun-16 08:59N 40°40' W 074°05'1 3.1
2018-Jun-16 08:30N 40°39' W 074°04'4 7.6
2018-Jun-16 08:00N 40°39' W 074°09'1 2.2
2018-Jun-16 07:28N 40°40' W 074°09'0 0.2
2018-Jun-16 07:00N 40°40' W 074°09'0 0.0
2018-Jun-16 06:28N 40°40' W 074°09'0 0.0
2018-Jun-16 05:55N 40°40' W 074°09'0 0.0
2018-Jun-16 05:27N 40°40' W 074°09'0 0.0
2018-Jun-16 04:59N 40°40' W 074°09'1 2.6
2018-Jun-16 04:26N 40°38' W 074°08'0 0.0
2018-Jun-16 03:59N 40°38' W 074°08'0 0.0
2018-Jun-16 03:30N 40°38' W 074°08'0 0.0
2018-Jun-16 03:00N 40°38' W 074°08'0 0.0
2018-Jun-16 02:29N 40°38' W 074°08'0 0.0
2018-Jun-16 02:00N 40°38' W 074°08'0 0.0
2018-Jun-16 01:30N 40°38' W 074°08'0 0.0
2018-Jun-16 01:00N 40°38' W 074°08'0 0.0
2018-Jun-16 00:30N 40°38' W 074°08'0 0.0
2018-Jun-16 00:00N 40°38' W 074°08'0 0.0
2018-Jun-15 23:30N 40°38' W 074°08'0 0.0
2018-Jun-15 23:00N 40°38' W 074°08'1 1.9
2018-Jun-15 22:30N 40°39' W 074°09'1 2.6
2018-Jun-15 21:58N 40°40' W 074°09'0 0.0
2018-Jun-15 21:28N 40°40' W 074°09'0 0.0
2018-Jun-15 21:00N 40°40' W 074°09'0 0.8
2018-Jun-15 20:30N 40°40' W 074°09'0 0.0
2018-Jun-15 19:48N 40°40' W 074°09'0 0.0
2018-Jun-15 19:27N 40°40' W 074°09'1 0.7
2018-Jun-15 17:50N 40°38' W 074°09'1 0.1
2018-Jun-15 12:46N 40°38' W 074°08'0 0.0
2018-Jun-15 11:35N 40°38' W 074°08'0 0.0
2018-Jun-15 11:30N 40°38' W 074°08'0 0.0
2018-Jun-15 10:55N 40°38' W 074°08'0 0.0
2018-Jun-15 10:25N 40°38' W 074°08'0 0.6
2018-Jun-15 10:00N 40°39' W 074°08'2 4.3
2018-Jun-15 09:28N 40°41' W 074°09'0 0.8
2018-Jun-15 09:00N 40°41' W 074°08'2 4.3
2018-Jun-15 08:30N 40°38' W 074°09'3 5.4
2018-Jun-15 08:00N 40°39' W 074°05'3 6.3
2018-Jun-15 07:30N 40°37' W 074°03'2 3.2
2018-Jun-15 07:01N 40°38' W 074°04'0 0.0
2018-Jun-15 06:30N 40°38' W 074°04'2 3.5
2018-Jun-15 06:00N 40°39' W 074°06'2 4.3
2018-Jun-15 05:30N 40°40' W 074°08'1 2.9
2018-Jun-15 04:59N 40°41' W 074°09'0 0.4
2018-Jun-15 04:31N 40°41' W 074°09'3 0.6
2018-Jun-14 23:59N 40°38' W 074°08'3 7.3
2018-Jun-14 23:30N 40°40' W 074°03'1 2.5
2018-Jun-14 23:00N 40°40' W 074°05'2 4.0
2018-Jun-14 22:31N 40°39' W 074°07'1 1.9
2018-Jun-14 22:00N 40°38' W 074°08'0 0.0
2018-Jun-14 21:29N 40°38' W 074°08'0 0.0
2018-Jun-14 21:01N 40°38' W 074°08'3 5.2
2018-Jun-14 20:30N 40°41' W 074°09'0 0.2
2018-Jun-14 20:00N 40°41' W 074°09'1 2.6
2018-Jun-14 19:29N 40°40' W 074°08'1 2.8
2018-Jun-14 18:57N 40°39' W 074°07'3 6.2
2018-Jun-14 18:30N 40°39' W 074°04'3 6.1
2018-Jun-14 18:00N 40°39' W 074°08'0 0.0
2018-Jun-14 15:34N 40°39' W 074°08'0 4.6
2018-Jun-14 15:28N 40°39' W 074°07'0 0.9
2018-Jun-14 15:00N 40°39' W 074°07'2 3.2
2018-Jun-14 14:30N 40°40' W 074°09'1 2.7
2018-Jun-14 14:00N 40°41' W 074°09'0 0.6
2018-Jun-14 13:30N 40°41' W 074°09'3 5.2
2018-Jun-14 13:00N 40°39' W 074°08'0 0.5
2018-Jun-14 12:07N 40°38' W 074°08'211.2
2018-Jun-14 11:58N 40°39' W 074°05'1 3.2
2018-Jun-14 11:31N 40°40' W 074°04'0 0.7
2018-Jun-14 11:00N 40°40' W 074°04'1 1.9
2018-Jun-14 10:30N 40°39' W 074°05'2 4.9
2018-Jun-14 10:00N 40°38' W 074°08'0 0.0
2018-Jun-14 09:30N 40°38' W 074°08'0 0.0
2018-Jun-14 09:01N 40°38' W 074°08'0 0.0
2018-Jun-14 08:30N 40°38' W 074°08'1 1.5
2018-Jun-14 07:54N 40°39' W 074°07'0 0.0
2018-Jun-14 07:31N 40°39' W 074°07'0 0.8
2018-Jun-14 06:59N 40°39' W 074°06'3 5.5
2018-Jun-14 06:31N 40°38' W 074°03'4 6.9
2018-Jun-14 05:59N 40°39' W 074°08'0 0.1
2018-Jun-14 04:51N 40°38' W 074°08'0 0.0
2018-Jun-14 04:29N 40°38' W 074°08'0 0.0
2018-Jun-14 03:34N 40°38' W 074°08'0 0.0
2018-Jun-14 03:09N 40°38' W 074°08'0 0.0
2018-Jun-14 03:00N 40°38' W 074°08'0 0.0
2018-Jun-14 02:24N 40°38' W 074°08'0 0.0
2018-Jun-14 02:01N 40°38' W 074°08'0 0.0
2018-Jun-14 01:30N 40°38' W 074°08'3 1.1
2018-Jun-13 22:13N 40°37' W 074°12'1 5.7
2018-Jun-13 22:00N 40°39' W 074°11'3 5.8
2018-Jun-13 21:28N 40°39' W 074°07'3 6.6
2018-Jun-13 21:00N 40°38' W 074°03'3 5.8
2018-Jun-13 20:30N 40°39' W 074°07'3 5.7
2018-Jun-13 20:00N 40°42' W 074°08'0 0.0
2018-Jun-13 18:43N 40°42' W 074°08'1 7.1
2018-Jun-13 18:31N 40°40' W 074°08'2 3.3
2018-Jun-13 18:01N 40°38' W 074°08'0 0.0
2018-Jun-13 17:30N 40°38' W 074°08'0 0.0
2018-Jun-13 16:59N 40°38' W 074°08'0 0.0
2018-Jun-13 16:30N 40°38' W 074°08'0 0.0
2018-Jun-13 16:01N 40°38' W 074°08'0 0.0
2018-Jun-13 15:31N 40°38' W 074°08'0 0.0
2018-Jun-13 15:00N 40°38' W 074°08'0 0.0
2018-Jun-13 14:30N 40°38' W 074°08'0 0.0
2018-Jun-13 14:01N 40°38' W 074°08'0 0.0
2018-Jun-13 13:31N 40°38' W 074°08'0 0.0
2018-Jun-13 12:59N 40°38' W 074°08'0 0.0
2018-Jun-13 12:30N 40°38' W 074°08'0 0.0
2018-Jun-13 12:01N 40°38' W 074°08'0 0.0
2018-Jun-13 11:30N 40°38' W 074°08'5 9.8
2018-Jun-13 11:01N 40°41' W 074°02'5 4.7
2018-Jun-13 09:54N 40°46' W 074°00'0 0.7
2018-Jun-13 09:29N 40°46' W 074°00'1 2.5
2018-Jun-13 09:00N 40°45' W 074°01'0 0.0
2018-Jun-13 08:31N 40°45' W 074°01'0 0.0
2018-Jun-13 08:00N 40°45' W 074°01'4 7.1
2018-Jun-13 07:30N 40°41' W 074°02'3 6.9
2018-Jun-13 07:00N 40°39' W 074°06'3 5.4
2018-Jun-13 06:31N 40°39' W 074°09'2 3.4
2018-Jun-13 05:58N 40°40' W 074°08'1 1.4
2018-Jun-13 05:31N 40°41' W 074°09'0 0.1
2018-Jun-13 04:59N 40°41' W 074°09'1 2.1
2018-Jun-13 04:31N 40°40' W 074°09'1 2.7
2018-Jun-13 03:57N 40°38' W 074°08'0 0.0
2018-Jun-13 02:46N 40°38' W 074°08'0 0.0
2018-Jun-13 01:25N 40°38' W 074°08'2 2.5
2018-Jun-13 00:40N 40°39' W 074°05'0 0.6
2018-Jun-13 00:30N 40°39' W 074°05'3 5.7
2018-Jun-13 00:00N 40°39' W 074°09'1 1.6
2018-Jun-12 23:25N 40°40' W 074°09'0 0.6
2018-Jun-12 23:00N 40°40' W 074°09'0 0.5
2018-Jun-12 22:30N 40°39' W 074°09'1 2.3
2018-Jun-12 22:01N 40°41' W 074°09'1 1.1
2018-Jun-12 21:30N 40°41' W 074°09'0 0.0
2018-Jun-12 20:51N 40°41' W 074°09'0 0.2
2018-Jun-12 20:30N 40°41' W 074°09'0 0.4
2018-Jun-12 20:00N 40°41' W 074°09'2 3.5
2018-Jun-12 19:22N 40°39' W 074°09'2 6.0
2018-Jun-12 18:58N 40°39' W 074°06'2 5.2
2018-Jun-12 18:30N 40°38' W 074°03'3 5.3
2018-Jun-12 18:00N 40°39' W 074°06'1 2.8
2018-Jun-12 17:31N 40°38' W 074°08'0 0.0
2018-Jun-12 17:00N 40°38' W 074°08'0 0.0
2018-Jun-12 16:30N 40°38' W 074°08'0 0.0
2018-Jun-12 16:00N 40°38' W 074°08'0 0.0
2018-Jun-12 15:30N 40°38' W 074°08'0 0.0
2018-Jun-12 15:00N 40°38' W 074°08'0 0.0
2018-Jun-12 14:31N 40°38' W 074°08'0 0.0
2018-Jun-12 14:01N 40°38' W 074°08'0 0.0
2018-Jun-12 13:30N 40°38' W 074°08'0 0.0
2018-Jun-12 13:00N 40°38' W 074°08'0 0.0
2018-Jun-12 12:31N 40°38' W 074°08'0 0.0
2018-Jun-12 12:00N 40°38' W 074°08'1 0.1
2018-Jun-12 06:38N 40°39' W 074°09'1 9.9
2018-Jun-12 06:29N 40°40' W 074°08'1 1.1
2018-Jun-12 05:44N 40°41' W 074°09'1 2.7
2018-Jun-12 05:30N 40°40' W 074°08'3 2.6
2018-Jun-12 04:32N 40°39' W 074°05'1 5.0
2018-Jun-12 04:20N 40°39' W 074°04'3 6.9
2018-Jun-12 03:56N 40°36' W 074°03'3 1.7
2018-Jun-12 01:59N 40°39' W 074°05'1 2.3
2018-Jun-12 01:30N 40°40' W 074°05'0 0.6
2018-Jun-12 01:00N 40°40' W 074°05'1 2.4
2018-Jun-12 00:30N 40°39' W 074°05'2 4.3
2018-Jun-11 23:57N 40°38' W 074°08'0 0.0
2018-Jun-11 23:29N 40°38' W 074°08'0 0.0
2018-Jun-11 22:44N 40°38' W 074°08'0 0.0
2018-Jun-11 22:29N 40°38' W 074°08'0 0.0
2018-Jun-11 20:38N 40°38' W 074°08'0 0.0
2018-Jun-11 19:38N 40°38' W 074°08'0 0.0
2018-Jun-11 19:26N 40°38' W 074°08'0 0.0
2018-Jun-11 15:55N 40°38' W 074°08'1 1.6
2018-Jun-11 15:28N 40°38' W 074°09'1 2.6
2018-Jun-11 14:54N 40°40' W 074°09'1 1.9
2018-Jun-11 14:11N 40°38' W 074°09'3 5.5
2018-Jun-11 13:41N 40°39' W 074°05'1 7.0
2018-Jun-11 13:28N 40°38' W 074°03'4 1.7
2018-Jun-11 11:03N 40°39' W 074°09'210.6
2018-Jun-11 10:54N 40°40' W 074°08'0 0.8
2018-Jun-11 10:25N 40°41' W 074°09'0 0.7
2018-Jun-11 10:00N 40°40' W 074°08'2 3.6
2018-Jun-11 09:28N 40°39' W 074°09'3 5.3
2018-Jun-11 08:52N 40°39' W 074°05'3 5.8
2018-Jun-11 08:25N 40°37' W 074°03'4 1.3
2018-Jun-11 05:24N 40°38' W 074°08'0 0.0
2018-Jun-11 05:00N 40°38' W 074°08'0 0.0
2018-Jun-11 04:25N 40°38' W 074°08'0 0.0
2018-Jun-11 04:00N 40°38' W 074°08'0 0.0
2018-Jun-11 03:30N 40°38' W 074°08'0 0.0
2018-Jun-11 03:00N 40°38' W 074°08'0 0.0
2018-Jun-11 02:31N 40°38' W 074°08'0 0.0
2018-Jun-11 01:56N 40°38' W 074°08'0 0.0
2018-Jun-11 01:30N 40°38' W 074°08'0 0.0
2018-Jun-11 00:56N 40°38' W 074°08'0 0.0
2018-Jun-11 00:26N 40°38' W 074°08'1 1.8
2018-Jun-10 23:59N 40°39' W 074°07'2 3.4
2018-Jun-10 23:30N 40°40' W 074°09'0 0.5
2018-Jun-10 22:51N 40°40' W 074°09'1 0.2
2018-Jun-10 15:25N 40°38' W 074°08'3 1.1
2018-Jun-10 12:37N 40°38' W 074°12'2 9.7
2018-Jun-10 12:23N 40°39' W 074°09'2 3.2
2018-Jun-10 11:52N 40°39' W 074°06'3 6.9
2018-Jun-10 11:30N 40°39' W 074°03'2 3.0
2018-Jun-10 11:00N 40°40' W 074°05'0 0.3
2018-Jun-10 10:30N 40°40' W 074°05'0 0.0
2018-Jun-10 10:00N 40°40' W 074°05'0 0.0
2018-Jun-10 09:30N 40°40' W 074°05'0 0.0
2018-Jun-10 09:00N 40°40' W 074°05'1 2.6
2018-Jun-10 08:31N 40°39' W 074°05'3 5.7
2018-Jun-10 08:00N 40°39' W 074°09'2 4.1
2018-Jun-10 07:30N 40°41' W 074°09'0 0.0
2018-Jun-10 07:01N 40°41' W 074°09'3 5.3
2018-Jun-10 06:30N 40°39' W 074°08'0 0.0
2018-Jun-10 06:00N 40°39' W 074°08'0 0.0
2018-Jun-10 05:30N 40°39' W 074°08'0 0.0
2018-Jun-10 05:00N 40°39' W 074°08'2 4.3
2018-Jun-10 04:30N 40°39' W 074°05'0 0.1
2018-Jun-10 04:00N 40°39' W 074°05'1 1.2
2018-Jun-10 03:30N 40°39' W 074°04'2 3.5
2018-Jun-10 03:00N 40°38' W 074°03'3 5.9
2018-Jun-10 02:30N 40°39' W 074°06'1 2.0
2018-Jun-10 01:58N 40°39' W 074°08'1 1.6
2018-Jun-10 01:03N 40°39' W 074°06'0 0.1
2018-Jun-10 00:47N 40°39' W 074°06'1 2.4
2018-Jun-10 00:30N 40°39' W 074°05'1 1.1
2018-Jun-10 00:01N 40°39' W 074°04'3 6.6
2018-Jun-09 23:30N 40°39' W 074°09'2 4.0
2018-Jun-09 23:00N 40°41' W 074°08'1 2.2
2018-Jun-09 22:30N 40°42' W 074°09'0 0.3
2018-Jun-09 21:33N 40°42' W 074°09'1 4.2
2018-Jun-09 21:26N 40°42' W 074°08'3 6.9
2018-Jun-09 20:59N 40°39' W 074°08'0 0.0
2018-Jun-09 20:30N 40°38' W 074°08'0 0.0
2018-Jun-09 20:00N 40°38' W 074°08'0 0.0
2018-Jun-09 19:30N 40°38' W 074°08'0 0.1
2018-Jun-09 19:00N 40°39' W 074°08'0 0.9
2018-Jun-09 18:30N 40°39' W 074°07'1 2.7
2018-Jun-09 18:00N 40°39' W 074°09'2 3.2
2018-Jun-09 17:30N 40°41' W 074°09'1 2.2
2018-Jun-09 16:58N 40°40' W 074°09'1 3.0
2018-Jun-09 16:30N 40°38' W 074°08'0 0.0
2018-Jun-09 16:00N 40°38' W 074°08'0 0.0
2018-Jun-09 15:00N 40°38' W 074°08'2 4.5
2018-Jun-09 14:30N 40°41' W 074°09'0 0.8
2018-Jun-09 13:58N 40°41' W 074°09'2 3.6
2018-Jun-09 13:18N 40°39' W 074°09'3 6.4
2018-Jun-09 12:55N 40°39' W 074°06'1 3.4
2018-Jun-09 12:30N 40°39' W 074°04'3 5.9
2018-Jun-09 12:00N 40°38' W 074°08'0 0.0
2018-Jun-09 11:30N 40°38' W 074°08'0 0.1
2018-Jun-09 11:00N 40°39' W 074°08'3 1.2
2018-Jun-09 08:18N 40°38' W 074°12'  
Track history (hours):
 
Tides and Currents Weather Stations Pressure Air Temp Water Temp Dewpoint Dewpoint Depression Visibility Wind Speed Wind Dir Waves Ship Positions

Jonathan C Moran

Owner: Moran Towing Corporation, New Canaan, CT. More information available from US FCC via Universal Licensing System and Coast Guard Vessel Documentation Center.

Last reported at 2018-Jun-19 08:00 UTC. Time now 2018-Jun-19 08:01 UTC.
Position N 40°41' W 074°08'.

Length 28 m; draft 5.5 m.

Type: Tug. MMSI: 367707930.

Date/timePositionNaut miles runAvg speedWind from/ knotsBaromVisibWave heightAir tempDewpointWater temp
2018-Jun-19 08:00N 40°41' W 074°08'0 0.4
2018-Jun-19 07:20N 40°41' W 074°08'0 0.0
2018-Jun-19 06:59N 40°41' W 074°08'0 0.5
2018-Jun-19 06:30N 40°41' W 074°08'1 2.5
2018-Jun-19 06:00N 40°40' W 074°08'2 3.3
2018-Jun-19 05:30N 40°39' W 074°07'3 5.2
2018-Jun-19 05:00N 40°38' W 074°03'3 5.7
2018-Jun-19 04:30N 40°39' W 074°07'1 1.2
2018-Jun-19 04:00N 40°38' W 074°08'0 0.0
2018-Jun-19 03:30N 40°38' W 074°08'0 0.0
2018-Jun-19 03:00N 40°38' W 074°08'0 0.0
2018-Jun-19 02:30N 40°38' W 074°08'0 0.0
2018-Jun-19 01:59N 40°38' W 074°08'0 0.0
2018-Jun-19 01:30N 40°38' W 074°08'0 0.0
2018-Jun-19 01:00N 40°38' W 074°08'0 0.0
2018-Jun-19 00:30N 40°38' W 074°08'0 0.0
2018-Jun-19 00:00N 40°38' W 074°08'0 0.0
2018-Jun-18 23:30N 40°38' W 074°08'0 0.0
2018-Jun-18 23:00N 40°38' W 074°08'0 0.0
2018-Jun-18 22:30N 40°38' W 074°08'1 2.7
2018-Jun-18 22:00N 40°40' W 074°09'1 2.5
2018-Jun-18 21:30N 40°41' W 074°09'1 1.0
2018-Jun-18 20:58N 40°41' W 074°08'2 3.7
2018-Jun-18 20:24N 40°38' W 074°09'2 5.0
2018-Jun-18 19:55N 40°39' W 074°05'3 5.4
2018-Jun-18 19:24N 40°37' W 074°03'3 8.2
2018-Jun-18 19:00N 40°39' W 074°06'1 2.5
2018-Jun-18 18:30N 40°38' W 074°08'0 0.0
2018-Jun-18 18:00N 40°38' W 074°08'0 0.0
2018-Jun-18 17:30N 40°38' W 074°08'0 0.0
2018-Jun-18 17:00N 40°38' W 074°08'0 0.0
2018-Jun-18 16:30N 40°38' W 074°08'0 0.0
2018-Jun-18 16:00N 40°38' W 074°08'0 0.0
2018-Jun-18 15:30N 40°38' W 074°08'2 2.2
2018-Jun-18 14:48N 40°40' W 074°09'0 1.1
2018-Jun-18 14:30N 40°40' W 074°09'1 2.9
2018-Jun-18 14:00N 40°39' W 074°07'3 6.2
2018-Jun-18 13:30N 40°38' W 074°03'3 5.6
2018-Jun-18 13:00N 40°39' W 074°07'1 1.2
2018-Jun-18 12:19N 40°38' W 074°08'0 0.0
2018-Jun-18 11:58N 40°38' W 074°08'0 0.0
2018-Jun-18 08:32N 40°38' W 074°08'0 0.2
2018-Jun-18 08:30N 40°38' W 074°08'1 3.0
2018-Jun-18 08:00N 40°40' W 074°09'0 0.1
2018-Jun-18 07:30N 40°40' W 074°09'1 2.6
2018-Jun-18 07:00N 40°39' W 074°08'0 0.3
2018-Jun-18 06:27N 40°38' W 074°08'2 4.7
2018-Jun-18 05:59N 40°41' W 074°09'0 0.1
2018-Jun-18 05:30N 40°41' W 074°09'1 1.5
2018-Jun-18 04:59N 40°40' W 074°08'1 2.5
2018-Jun-18 04:29N 40°39' W 074°08'2 4.8
2018-Jun-18 04:00N 40°39' W 074°05'3 5.6
2018-Jun-18 03:30N 40°37' W 074°03'3 6.0
2018-Jun-18 03:00N 40°39' W 074°06'2 3.3
2018-Jun-18 02:30N 40°38' W 074°08'0 0.0
2018-Jun-18 02:00N 40°38' W 074°08'0 0.0
2018-Jun-18 01:30N 40°38' W 074°08'0 0.0
2018-Jun-18 01:00N 40°38' W 074°08'0 0.3
2018-Jun-18 00:30N 40°39' W 074°08'1 1.7
2018-Jun-17 23:45N 40°40' W 074°09'1 3.5
2018-Jun-17 23:30N 40°40' W 074°08'0 0.2
2018-Jun-17 22:32N 40°40' W 074°08'0 4.6
2018-Jun-17 22:29N 40°40' W 074°08'2 3.4
2018-Jun-17 22:00N 40°39' W 074°08'4 7.2
2018-Jun-17 21:30N 40°39' W 074°03'2 3.6
2018-Jun-17 21:00N 40°39' W 074°06'2 0.3
2018-Jun-17 16:16N 40°39' W 074°08'1 1.6
2018-Jun-17 15:25N 40°40' W 074°09'3 4.6
2018-Jun-17 14:43N 40°39' W 074°05'2 7.1
2018-Jun-17 14:30N 40°38' W 074°03'3 1.1
2018-Jun-17 11:18N 40°38' W 074°08'0 0.0
2018-Jun-17 11:00N 40°38' W 074°08'0 0.1
2018-Jun-17 10:27N 40°38' W 074°08'1 3.4
2018-Jun-17 10:00N 40°40' W 074°09'1 2.3
2018-Jun-17 09:29N 40°39' W 074°09'3 5.9
2018-Jun-17 09:00N 40°39' W 074°05'2 4.0
2018-Jun-17 08:31N 40°38' W 074°03'3 6.1
2018-Jun-17 08:00N 40°39' W 074°07'1 1.0
2018-Jun-17 07:19N 40°38' W 074°08'0 0.0
2018-Jun-17 06:42N 40°38' W 074°08'0 0.0
2018-Jun-17 06:27N 40°38' W 074°08'0 0.0
2018-Jun-17 06:00N 40°38' W 074°08'0 0.0
2018-Jun-17 05:30N 40°38' W 074°08'0 0.0
2018-Jun-16 16:42N 40°38' W 074°08'0 0.1
2018-Jun-16 16:30N 40°38' W 074°08'2 3.4
2018-Jun-16 15:59N 40°40' W 074°08'1 1.6
2018-Jun-16 15:30N 40°41' W 074°09'1 1.5
2018-Jun-16 15:00N 40°40' W 074°08'2 3.9
2018-Jun-16 14:30N 40°39' W 074°09'3 6.3
2018-Jun-16 14:00N 40°39' W 074°04'3 5.4
2018-Jun-16 13:30N 40°37' W 074°03'3 6.8
2018-Jun-16 13:00N 40°40' W 074°04'0 0.0
2018-Jun-16 12:30N 40°40' W 074°04'0 0.0
2018-Jun-16 12:00N 40°40' W 074°04'0 0.0
2018-Jun-16 11:30N 40°40' W 074°04'0 0.0
2018-Jun-16 11:00N 40°40' W 074°04'1 1.2
2018-Jun-16 10:30N 40°40' W 074°05'0 0.3
2018-Jun-16 10:00N 40°40' W 074°05'0 0.3
2018-Jun-16 09:30N 40°40' W 074°05'0 0.0
2018-Jun-16 08:59N 40°40' W 074°05'1 3.1
2018-Jun-16 08:30N 40°39' W 074°04'4 7.6
2018-Jun-16 08:00N 40°39' W 074°09'1 2.2
2018-Jun-16 07:28N 40°40' W 074°09'0 0.2
2018-Jun-16 07:00N 40°40' W 074°09'0 0.0
2018-Jun-16 06:28N 40°40' W 074°09'0 0.0
2018-Jun-16 05:55N 40°40' W 074°09'0 0.0
2018-Jun-16 05:27N 40°40' W 074°09'0 0.0
2018-Jun-16 04:59N 40°40' W 074°09'1 2.6
2018-Jun-16 04:26N 40°38' W 074°08'0 0.0
2018-Jun-16 03:59N 40°38' W 074°08'0 0.0
2018-Jun-16 03:30N 40°38' W 074°08'0 0.0
2018-Jun-16 03:00N 40°38' W 074°08'0 0.0
2018-Jun-16 02:29N 40°38' W 074°08'0 0.0
2018-Jun-16 02:00N 40°38' W 074°08'0 0.0
2018-Jun-16 01:30N 40°38' W 074°08'0 0.0
2018-Jun-16 01:00N 40°38' W 074°08'0 0.0
2018-Jun-16 00:30N 40°38' W 074°08'0 0.0
2018-Jun-16 00:00N 40°38' W 074°08'0 0.0
2018-Jun-15 23:30N 40°38' W 074°08'0 0.0
2018-Jun-15 23:00N 40°38' W 074°08'1 1.9
2018-Jun-15 22:30N 40°39' W 074°09'1 2.6
2018-Jun-15 21:58N 40°40' W 074°09'0 0.0
2018-Jun-15 21:28N 40°40' W 074°09'0 0.0
2018-Jun-15 21:00N 40°40' W 074°09'0 0.8
2018-Jun-15 20:30N 40°40' W 074°09'0 0.0
2018-Jun-15 19:48N 40°40' W 074°09'0 0.0
2018-Jun-15 19:27N 40°40' W 074°09'1 0.7
2018-Jun-15 17:50N 40°38' W 074°09'1 0.1
2018-Jun-15 12:46N 40°38' W 074°08'0 0.0
2018-Jun-15 11:35N 40°38' W 074°08'0 0.0
2018-Jun-15 11:30N 40°38' W 074°08'0 0.0
2018-Jun-15 10:55N 40°38' W 074°08'0 0.0
2018-Jun-15 10:25N 40°38' W 074°08'0 0.6
2018-Jun-15 10:00N 40°39' W 074°08'2 4.3
2018-Jun-15 09:28N 40°41' W 074°09'0 0.8
2018-Jun-15 09:00N 40°41' W 074°08'2 4.3
2018-Jun-15 08:30N 40°38' W 074°09'3 5.4
2018-Jun-15 08:00N 40°39' W 074°05'3 6.3
2018-Jun-15 07:30N 40°37' W 074°03'2 3.2
2018-Jun-15 07:01N 40°38' W 074°04'0 0.0
2018-Jun-15 06:30N 40°38' W 074°04'2 3.5
2018-Jun-15 06:00N 40°39' W 074°06'2 4.3
2018-Jun-15 05:30N 40°40' W 074°08'1 2.9
2018-Jun-15 04:59N 40°41' W 074°09'0 0.4
2018-Jun-15 04:31N 40°41' W 074°09'3 0.6
2018-Jun-14 23:59N 40°38' W 074°08'3 7.3
2018-Jun-14 23:30N 40°40' W 074°03'1 2.5
2018-Jun-14 23:00N 40°40' W 074°05'2 4.0
2018-Jun-14 22:31N 40°39' W 074°07'1 1.9
2018-Jun-14 22:00N 40°38' W 074°08'0 0.0
2018-Jun-14 21:29N 40°38' W 074°08'0 0.0
2018-Jun-14 21:01N 40°38' W 074°08'3 5.2
2018-Jun-14 20:30N 40°41' W 074°09'0 0.2
2018-Jun-14 20:00N 40°41' W 074°09'1 2.6
2018-Jun-14 19:29N 40°40' W 074°08'1 2.8
2018-Jun-14 18:57N 40°39' W 074°07'3 6.2
2018-Jun-14 18:30N 40°39' W 074°04'3 6.1
2018-Jun-14 18:00N 40°39' W 074°08'0 0.0
2018-Jun-14 15:34N 40°39' W 074°08'0 4.6
2018-Jun-14 15:28N 40°39' W 074°07'0 0.9
2018-Jun-14 15:00N 40°39' W 074°07'2 3.2
2018-Jun-14 14:30N 40°40' W 074°09'1 2.7
2018-Jun-14 14:00N 40°41' W 074°09'0 0.6
2018-Jun-14 13:30N 40°41' W 074°09'3 5.2
2018-Jun-14 13:00N 40°39' W 074°08'0 0.5
2018-Jun-14 12:07N 40°38' W 074°08'211.2
2018-Jun-14 11:58N 40°39' W 074°05'1 3.2
2018-Jun-14 11:31N 40°40' W 074°04'0 0.7
2018-Jun-14 11:00N 40°40' W 074°04'1 1.9
2018-Jun-14 10:30N 40°39' W 074°05'2 4.9
2018-Jun-14 10:00N 40°38' W 074°08'0 0.0
2018-Jun-14 09:30N 40°38' W 074°08'0 0.0
2018-Jun-14 09:01N 40°38' W 074°08'0 0.0
2018-Jun-14 08:30N 40°38' W 074°08'1 1.5
2018-Jun-14 07:54N 40°39' W 074°07'0 0.0
2018-Jun-14 07:31N 40°39' W 074°07'0 0.8
2018-Jun-14 06:59N 40°39' W 074°06'3 5.5
2018-Jun-14 06:31N 40°38' W 074°03'4 6.9
2018-Jun-14 05:59N 40°39' W 074°08'0 0.1
2018-Jun-14 04:51N 40°38' W 074°08'0 0.0
2018-Jun-14 04:29N 40°38' W 074°08'0 0.0
2018-Jun-14 03:34N 40°38' W 074°08'0 0.0
2018-Jun-14 03:09N 40°38' W 074°08'0 0.0
2018-Jun-14 03:00N 40°38' W 074°08'0 0.0
2018-Jun-14 02:24N 40°38' W 074°08'0 0.0
2018-Jun-14 02:01N 40°38' W 074°08'0 0.0
2018-Jun-14 01:30N 40°38' W 074°08'3 1.1
2018-Jun-13 22:13N 40°37' W 074°12'1 5.7
2018-Jun-13 22:00N 40°39' W 074°11'3 5.8
2018-Jun-13 21:28N 40°39' W 074°07'3 6.6
2018-Jun-13 21:00N 40°38' W 074°03'3 5.8
2018-Jun-13 20:30N 40°39' W 074°07'3 5.7
2018-Jun-13 20:00N 40°42' W 074°08'0 0.0
2018-Jun-13 18:43N 40°42' W 074°08'1 7.1
2018-Jun-13 18:31N 40°40' W 074°08'2 3.3
2018-Jun-13 18:01N 40°38' W 074°08'0 0.0
2018-Jun-13 17:30N 40°38' W 074°08'0 0.0
2018-Jun-13 16:59N 40°38' W 074°08'0 0.0
2018-Jun-13 16:30N 40°38' W 074°08'0 0.0
2018-Jun-13 16:01N 40°38' W 074°08'0 0.0
2018-Jun-13 15:31N 40°38' W 074°08'0 0.0
2018-Jun-13 15:00N 40°38' W 074°08'0 0.0
2018-Jun-13 14:30N 40°38' W 074°08'0 0.0
2018-Jun-13 14:01N 40°38' W 074°08'0 0.0
2018-Jun-13 13:31N 40°38' W 074°08'0 0.0
2018-Jun-13 12:59N 40°38' W 074°08'0 0.0
2018-Jun-13 12:30N 40°38' W 074°08'0 0.0
2018-Jun-13 12:01N 40°38' W 074°08'0 0.0
2018-Jun-13 11:30N 40°38' W 074°08'5 9.8
2018-Jun-13 11:01N 40°41' W 074°02'5 4.7
2018-Jun-13 09:54N 40°46' W 074°00'0 0.7
2018-Jun-13 09:29N 40°46' W 074°00'1 2.5
2018-Jun-13 09:00N 40°45' W 074°01'0 0.0
2018-Jun-13 08:31N 40°45' W 074°01'0 0.0
2018-Jun-13 08:00N 40°45' W 074°01'4 7.1
2018-Jun-13 07:30N 40°41' W 074°02'3 6.9
2018-Jun-13 07:00N 40°39' W 074°06'3 5.4
2018-Jun-13 06:31N 40°39' W 074°09'2 3.4
2018-Jun-13 05:58N 40°40' W 074°08'1 1.4
2018-Jun-13 05:31N 40°41' W 074°09'0 0.1
2018-Jun-13 04:59N 40°41' W 074°09'1 2.1
2018-Jun-13 04:31N 40°40' W 074°09'1 2.7
2018-Jun-13 03:57N 40°38' W 074°08'0 0.0
2018-Jun-13 02:46N 40°38' W 074°08'0 0.0
2018-Jun-13 01:25N 40°38' W 074°08'2 2.5
2018-Jun-13 00:40N 40°39' W 074°05'0 0.6
2018-Jun-13 00:30N 40°39' W 074°05'3 5.7
2018-Jun-13 00:00N 40°39' W 074°09'1 1.6
2018-Jun-12 23:25N 40°40' W 074°09'0 0.6
2018-Jun-12 23:00N 40°40' W 074°09'0 0.5
2018-Jun-12 22:30N 40°39' W 074°09'1 2.3
2018-Jun-12 22:01N 40°41' W 074°09'1 1.1
2018-Jun-12 21:30N 40°41' W 074°09'0 0.0
2018-Jun-12 20:51N 40°41' W 074°09'0 0.2
2018-Jun-12 20:30N 40°41' W 074°09'0 0.4
2018-Jun-12 20:00N 40°41' W 074°09'2 3.5
2018-Jun-12 19:22N 40°39' W 074°09'2 6.0
2018-Jun-12 18:58N 40°39' W 074°06'2 5.2
2018-Jun-12 18:30N 40°38' W 074°03'3 5.3
2018-Jun-12 18:00N 40°39' W 074°06'1 2.8
2018-Jun-12 17:31N 40°38' W 074°08'0 0.0
2018-Jun-12 17:00N 40°38' W 074°08'0 0.0
2018-Jun-12 16:30N 40°38' W 074°08'0 0.0
2018-Jun-12 16:00N 40°38' W 074°08'0 0.0
2018-Jun-12 15:30N 40°38' W 074°08'0 0.0
2018-Jun-12 15:00N 40°38' W 074°08'0 0.0
2018-Jun-12 14:31N 40°38' W 074°08'0 0.0
2018-Jun-12 14:01N 40°38' W 074°08'0 0.0
2018-Jun-12 13:30N 40°38' W 074°08'0 0.0
2018-Jun-12 13:00N 40°38' W 074°08'0 0.0
2018-Jun-12 12:31N 40°38' W 074°08'0 0.0
2018-Jun-12 12:00N 40°38' W 074°08'1 0.1
2018-Jun-12 06:38N 40°39' W 074°09'1 9.9
2018-Jun-12 06:29N 40°40' W 074°08'1 1.1
2018-Jun-12 05:44N 40°41' W 074°09'1 2.7
2018-Jun-12 05:30N 40°40' W 074°08'3 2.6
2018-Jun-12 04:32N 40°39' W 074°05'1 5.0
2018-Jun-12 04:20N 40°39' W 074°04'3 6.9
2018-Jun-12 03:56N 40°36' W 074°03'3 1.7
2018-Jun-12 01:59N 40°39' W 074°05'1 2.3
2018-Jun-12 01:30N 40°40' W 074°05'0 0.6
2018-Jun-12 01:00N 40°40' W 074°05'1 2.4
2018-Jun-12 00:30N 40°39' W 074°05'2 4.3
2018-Jun-11 23:57N 40°38' W 074°08'0 0.0
2018-Jun-11 23:29N 40°38' W 074°08'0 0.0
2018-Jun-11 22:44N 40°38' W 074°08'0 0.0
2018-Jun-11 22:29N 40°38' W 074°08'0 0.0
2018-Jun-11 20:38N 40°38' W 074°08'0 0.0
2018-Jun-11 19:38N 40°38' W 074°08'0 0.0
2018-Jun-11 19:26N 40°38' W 074°08'0 0.0
2018-Jun-11 15:55N 40°38' W 074°08'1 1.6
2018-Jun-11 15:28N 40°38' W 074°09'1 2.6
2018-Jun-11 14:54N 40°40' W 074°09'1 1.9
2018-Jun-11 14:11N 40°38' W 074°09'3 5.5
2018-Jun-11 13:41N 40°39' W 074°05'1 7.0
2018-Jun-11 13:28N 40°38' W 074°03'4 1.7
2018-Jun-11 11:03N 40°39' W 074°09'210.6
2018-Jun-11 10:54N 40°40' W 074°08'0 0.8
2018-Jun-11 10:25N 40°41' W 074°09'0 0.7
2018-Jun-11 10:00N 40°40' W 074°08'2 3.6
2018-Jun-11 09:28N 40°39' W 074°09'3 5.3
2018-Jun-11 08:52N 40°39' W 074°05'3 5.8
2018-Jun-11 08:25N 40°37' W 074°03'4 1.3
2018-Jun-11 05:24N 40°38' W 074°08'0 0.0
2018-Jun-11 05:00N 40°38' W 074°08'0 0.0
2018-Jun-11 04:25N 40°38' W 074°08'0 0.0
2018-Jun-11 04:00N 40°38' W 074°08'0 0.0
2018-Jun-11 03:30N 40°38' W 074°08'0 0.0
2018-Jun-11 03:00N 40°38' W 074°08'0 0.0
2018-Jun-11 02:31N 40°38' W 074°08'0 0.0
2018-Jun-11 01:56N 40°38' W 074°08'0 0.0
2018-Jun-11 01:30N 40°38' W 074°08'0 0.0
2018-Jun-11 00:56N 40°38' W 074°08'0 0.0
2018-Jun-11 00:26N 40°38' W 074°08'1 1.8
2018-Jun-10 23:59N 40°39' W 074°07'2 3.4
2018-Jun-10 23:30N 40°40' W 074°09'0 0.5
2018-Jun-10 22:51N 40°40' W 074°09'1 0.2
2018-Jun-10 15:25N 40°38' W 074°08'3 1.1
2018-Jun-10 12:37N 40°38' W 074°12'2 9.7
2018-Jun-10 12:23N 40°39' W 074°09'2 3.2
2018-Jun-10 11:52N 40°39' W 074°06'3 6.9
2018-Jun-10 11:30N 40°39' W 074°03'2 3.0
2018-Jun-10 11:00N 40°40' W 074°05'0 0.3
2018-Jun-10 10:30N 40°40' W 074°05'0 0.0
2018-Jun-10 10:00N 40°40' W 074°05'0 0.0
2018-Jun-10 09:30N 40°40' W 074°05'0 0.0
2018-Jun-10 09:00N 40°40' W 074°05'1 2.6
2018-Jun-10 08:31N 40°39' W 074°05'3 5.7
2018-Jun-10 08:00N 40°39' W 074°09'2 4.1
2018-Jun-10 07:30N 40°41' W 074°09'0 0.0
2018-Jun-10 07:01N 40°41' W 074°09'3 5.3
2018-Jun-10 06:30N 40°39' W 074°08'0 0.0
2018-Jun-10 06:00N 40°39' W 074°08'0 0.0
2018-Jun-10 05:30N 40°39' W 074°08'0 0.0
2018-Jun-10 05:00N 40°39' W 074°08'2 4.3
2018-Jun-10 04:30N 40°39' W 074°05'0 0.1
2018-Jun-10 04:00N 40°39' W 074°05'1 1.2
2018-Jun-10 03:30N 40°39' W 074°04'2 3.5
2018-Jun-10 03:00N 40°38' W 074°03'3 5.9
2018-Jun-10 02:30N 40°39' W 074°06'1 2.0
2018-Jun-10 01:58N 40°39' W 074°08'1 1.6
2018-Jun-10 01:03N 40°39' W 074°06'0 0.1
2018-Jun-10 00:47N 40°39' W 074°06'1 2.4
2018-Jun-10 00:30N 40°39' W 074°05'1 1.1
2018-Jun-10 00:01N 40°39' W 074°04'3 6.6
2018-Jun-09 23:30N 40°39' W 074°09'2 4.0
2018-Jun-09 23:00N 40°41' W 074°08'1 2.2
2018-Jun-09 22:30N 40°42' W 074°09'0 0.3
2018-Jun-09 21:33N 40°42' W 074°09'1 4.2
2018-Jun-09 21:26N 40°42' W 074°08'3 6.9
2018-Jun-09 20:59N 40°39' W 074°08'0 0.0
2018-Jun-09 20:30N 40°38' W 074°08'0 0.0
2018-Jun-09 20:00N 40°38' W 074°08'0 0.0
2018-Jun-09 19:30N 40°38' W 074°08'0 0.1
2018-Jun-09 19:00N 40°39' W 074°08'0 0.9
2018-Jun-09 18:30N 40°39' W 074°07'1 2.7
2018-Jun-09 18:00N 40°39' W 074°09'2 3.2
2018-Jun-09 17:30N 40°41' W 074°09'1 2.2
2018-Jun-09 16:58N 40°40' W 074°09'1 3.0
2018-Jun-09 16:30N 40°38' W 074°08'0 0.0
2018-Jun-09 16:00N 40°38' W 074°08'0 0.0
2018-Jun-09 15:00N 40°38' W 074°08'2 4.5
2018-Jun-09 14:30N 40°41' W 074°09'0 0.8
2018-Jun-09 13:58N 40°41' W 074°09'2 3.6
2018-Jun-09 13:18N 40°39' W 074°09'3 6.4
2018-Jun-09 12:55N 40°39' W 074°06'1 3.4
2018-Jun-09 12:30N 40°39' W 074°04'3 5.9
2018-Jun-09 12:00N 40°38' W 074°08'0 0.0
2018-Jun-09 11:30N 40°38' W 074°08'0 0.1
2018-Jun-09 11:00N 40°39' W 074°08'3 1.2
2018-Jun-09 08:18N 40°38' W 074°12'  

Dump ship's entire track history